New Haven Heights, Indiana
Current Conditions -  °F | °C
As of 10:54 PM on Friday 24 Oct 2014 (Local Time) from KFWA Reporting Station
Haze Haze  
Wind Chill: 45°   Ceiling: Unl
Heat Index: 49°   Visibility: 6mi
Dew Point: 46°   Wind: 8mph
Humidity: 90%   Direction: 210°SSW
Pressure: 30"   Gusts: NA
Location:  41.0925°N, 84.9712°W
Report Text: KFWA 250254Z 21007KT 6SM BR FEW220 09/08 A3000 RMK AO2 SLP161 T00940078 58002
Loading
Personal Weather Stations






























Interactive Weather Map
Tropical Storm Tracking
New forecast layout! Learn more

10-Day Weather Forecast

Advertisements
Track Severe Weather on mobile